createdAt,value
2022-11-09T00:15:01.167Z,2.0
2022-11-09T00:30:01.277Z,2.0
2022-11-09T00:40:00.577Z,1.9
2022-11-09T00:45:01.201Z,1.8
2022-11-09T00:46:01.312Z,1.7
2022-11-09T00:48:00.280Z,1.6
2022-11-09T00:49:00.280Z,1.5
2022-11-09T00:51:00.479Z,1.4
2022-11-09T00:55:00.409Z,1.5
2022-11-09T00:58:00.503Z,1.4
2022-11-09T00:59:00.278Z,1.3
2022-11-09T01:00:01.093Z,1.4
2022-11-09T01:01:00.336Z,1.5
2022-11-09T01:13:00.409Z,1.6
2022-11-09T01:14:00.309Z,1.7
2022-11-09T01:15:01.078Z,1.6
2022-11-09T01:16:00.286Z,1.5
2022-11-09T01:17:00.285Z,1.6
2022-11-09T01:18:00.292Z,1.7
2022-11-09T01:20:00.636Z,1.8
2022-11-09T01:21:00.284Z,1.9
2022-11-09T01:25:01.290Z,1.8
2022-11-09T01:26:00.291Z,1.7
2022-11-09T01:28:00.288Z,1.6
2022-11-09T01:29:00.290Z,1.5
2022-11-09T01:30:00.947Z,1.6
2022-11-09T01:31:00.284Z,1.7
2022-11-09T01:32:00.284Z,1.6
2022-11-09T01:33:00.317Z,1.5
2022-11-09T01:37:00.288Z,1.4
2022-11-09T01:38:00.294Z,1.3
2022-11-09T01:41:00.501Z,1.4
2022-11-09T01:45:00.977Z,1.4
2022-11-09T01:50:00.575Z,1.3
2022-11-09T01:55:01.168Z,1.2
2022-11-09T01:56:00.286Z,1.1
2022-11-09T02:00:01.307Z,1.1
2022-11-09T02:01:00.345Z,1.0
2022-11-09T02:15:01.276Z,1.0
2022-11-09T02:30:01.229Z,1.0
2022-11-09T02:32:00.395Z,0.9
2022-11-09T02:34:00.420Z,0.8
2022-11-09T02:35:00.522Z,0.7
2022-11-09T02:37:01.320Z,0.6
2022-11-09T02:38:00.303Z,0.5
2022-11-09T02:45:01.212Z,0.4
2022-11-09T02:46:00.304Z,0.3
2022-11-09T03:11:00.306Z,0.2
2022-11-09T03:12:00.313Z,0.1
2022-11-09T03:30:01.198Z,0.1
2022-11-09T03:32:00.319Z,0.2
2022-11-09T03:33:00.324Z,0.3
2022-11-09T03:40:01.029Z,0.4
2022-11-09T03:41:00.345Z,0.5
2022-11-09T03:45:01.318Z,0.4
2022-11-09T03:46:00.364Z,0.3
2022-11-09T03:48:00.332Z,0.2
2022-11-09T03:49:00.338Z,0.1
2022-11-09T03:59:00.609Z,0.2
2022-11-09T04:00:00.986Z,0.2
2022-11-09T04:12:00.580Z,0.1
2022-11-09T04:42:00.352Z,0.2
2022-11-09T04:43:00.366Z,0.3
2022-11-09T04:45:01.083Z,0.4
2022-11-09T04:46:00.353Z,0.5
2022-11-09T04:48:00.351Z,0.6
2022-11-09T04:49:00.367Z,0.7
2022-11-09T04:51:00.385Z,0.8
2022-11-09T04:55:01.156Z,0.7
2022-11-09T04:57:00.407Z,0.6
2022-11-09T04:58:00.361Z,0.5
2022-11-09T05:00:01.329Z,0.4
2022-11-09T05:01:00.396Z,0.3
2022-11-09T05:03:00.365Z,0.2
2022-11-09T05:04:00.448Z,0.1
2022-11-09T05:42:00.750Z,0.1
2022-11-09T05:44:00.432Z,0.2
2022-11-09T05:45:40.650Z,0.3
2022-11-09T05:47:05.928Z,0.4
2022-11-09T05:48:00.552Z,0.5
2022-11-09T05:50:00.387Z,0.7
2022-11-09T05:51:00.375Z,0.8
2022-11-09T05:52:00.578Z,1.0
2022-11-09T05:53:00.429Z,1.2
2022-11-09T05:54:00.381Z,1.4
2022-11-09T05:55:00.379Z,1.7
2022-11-09T05:56:00.371Z,1.9
2022-11-09T05:57:00.586Z,2.3
2022-11-09T05:58:00.423Z,2.6
2022-11-09T05:59:00.376Z,2.9
2022-11-09T06:00:02.387Z,3.5
2022-11-09T06:01:00.373Z,4.0
2022-11-09T06:02:00.628Z,4.9
2022-11-09T06:03:00.534Z,5.7
2022-11-09T06:04:00.379Z,6.6
2022-11-09T06:05:00.383Z,7.9
2022-11-09T06:06:03.893Z,9.3
2022-11-09T06:07:00.610Z,11.2
2022-11-09T06:08:00.399Z,13.1
2022-11-09T06:09:00.441Z,15.1
2022-11-09T06:10:00.389Z,18.1
2022-11-09T06:11:00.381Z,21.1
2022-11-09T06:12:00.607Z,25.8
2022-11-09T06:13:00.405Z,30.5
2022-11-09T06:14:00.406Z,35.3
2022-11-09T06:15:01.062Z,42.8
2022-11-09T06:16:00.380Z,50.3
2022-11-09T06:17:00.582Z,61.5
2022-11-09T06:18:00.403Z,72.7
2022-11-09T06:19:00.379Z,83.9
2022-11-09T06:20:00.385Z,100.6
2022-11-09T06:21:00.380Z,117.3
2022-11-09T06:22:00.869Z,141.8
2022-11-09T06:23:03.371Z,166.3
2022-11-09T06:24:01.581Z,190.9
2022-11-09T06:25:00.388Z,225.5
2022-11-09T06:26:00.377Z,260.2
2022-11-09T06:27:15.397Z,305.9
2022-11-09T06:28:00.656Z,351.5
2022-11-09T06:29:00.379Z,397.2
2022-11-09T06:31:00.404Z,513.7
2022-11-09T06:32:00.374Z,585.7
2022-11-09T06:33:00.622Z,657.6
2022-11-09T06:34:00.402Z,729.5
2022-11-09T06:35:00.401Z,812.3
2022-11-09T06:36:00.382Z,895.1
2022-11-09T06:37:00.382Z,987.0
2022-11-09T06:38:00.628Z,1078.9
2022-11-09T06:39:00.385Z,1170.7
2022-11-09T06:40:00.822Z,1277.0
2022-11-09T06:41:00.391Z,1383.3
2022-11-09T06:42:00.386Z,1503.0
2022-11-09T06:43:00.834Z,1622.7
2022-11-09T06:44:00.405Z,1742.5
2022-11-09T06:45:00.820Z,1866.6
2022-11-09T06:46:00.407Z,1990.7
2022-11-09T06:47:01.418Z,2114.9
2022-11-09T06:48:00.942Z,2239.0
2022-11-09T06:49:00.388Z,2363.1
2022-11-09T06:50:00.396Z,2499.3
2022-11-09T06:51:00.387Z,2635.5
2022-11-09T06:52:00.383Z,2799.7
2022-11-09T06:53:00.633Z,2963.8
2022-11-09T06:54:00.389Z,3127.9
2022-11-09T06:55:00.405Z,3314.1
2022-11-09T06:56:00.388Z,3500.3
2022-11-09T06:57:00.388Z,3688.5
2022-11-09T06:58:00.638Z,3876.6
2022-11-09T06:59:00.382Z,4064.7
2022-11-09T07:00:02.106Z,4239.3
2022-11-09T07:01:00.431Z,4413.9
2022-11-09T07:02:01.737Z,4622.7
2022-11-09T07:03:15.404Z,4831.4
2022-11-09T07:04:01.651Z,5040.1
2022-11-09T07:05:00.404Z,5262.6
2022-11-09T07:06:00.367Z,5485.1
2022-11-09T07:07:00.512Z,5702.6
2022-11-09T07:08:00.391Z,5920.1
2022-11-09T07:09:00.632Z,6137.7
2022-11-09T07:10:00.440Z,6349.7
2022-11-09T07:11:00.388Z,6561.8
2022-11-09T07:12:00.394Z,6786.1
2022-11-09T07:13:00.388Z,7010.3
2022-11-09T07:14:00.625Z,7234.6
2022-11-09T07:15:00.819Z,7485.9
2022-11-09T07:16:00.437Z,7737.1
2022-11-09T07:17:00.384Z,7978.4
2022-11-09T07:18:00.425Z,8219.7
2022-11-09T07:19:00.658Z,8460.9
2022-11-09T07:20:00.402Z,8711.3
2022-11-09T07:21:00.394Z,8961.6
2022-11-09T07:22:00.396Z,9238.1
2022-11-09T07:23:00.418Z,9514.5
2022-11-09T07:24:00.694Z,9791.0
2022-11-09T07:25:00.411Z,10132.9
2022-11-09T07:26:00.399Z,10474.9
2022-11-09T07:27:00.401Z,10843.3
2022-11-09T07:28:00.400Z,11211.8
2022-11-09T07:29:05.602Z,11580.3
2022-11-09T07:30:01.124Z,11989.2
2022-11-09T07:31:00.402Z,12398.1
2022-11-09T07:32:00.397Z,12832.9
2022-11-09T07:33:09.517Z,13267.7
2022-11-09T07:34:00.616Z,13702.5
2022-11-09T07:35:00.886Z,14106.0
2022-11-09T07:36:00.395Z,14509.5
2022-11-09T07:37:00.394Z,14974.5
2022-11-09T07:38:00.419Z,15439.5
2022-11-09T07:39:00.689Z,15904.5
2022-11-09T07:40:01.187Z,16369.6
2022-11-09T07:41:00.397Z,16834.7
2022-11-09T07:42:00.406Z,17416.3
2022-11-09T07:43:00.396Z,17997.8
2022-11-09T07:44:00.650Z,18579.3
2022-11-09T07:45:00.978Z,18869.9
2022-11-09T07:46:00.395Z,19160.4
2022-11-09T07:47:00.401Z,19263.7
2022-11-09T07:48:00.464Z,19367.1
2022-11-09T07:49:15.535Z,19470.4
2022-11-09T07:50:00.530Z,19649.7
2022-11-09T07:51:00.406Z,19828.9
2022-11-09T07:52:00.469Z,19886.7
2022-11-09T07:53:00.396Z,19944.5
2022-11-09T07:54:00.402Z,20002.3
2022-11-09T07:55:00.715Z,20165.0
2022-11-09T07:56:00.406Z,20327.7
2022-11-09T07:57:00.406Z,20506.6
2022-11-09T07:58:00.402Z,20685.5
2022-11-09T07:59:00.404Z,20864.5
2022-11-09T08:01:00.696Z,22273.9
2022-11-09T08:02:01.514Z,24578.7
2022-11-09T08:03:00.532Z,26883.5
2022-11-09T08:04:00.410Z,29188.3
2022-11-09T08:05:00.656Z,32264.7
2022-11-09T08:06:00.404Z,35341.0
2022-11-09T08:07:00.524Z,38410.5
2022-11-09T08:08:00.405Z,41480.1
2022-11-09T08:09:00.408Z,44549.6
2022-11-09T08:10:01.054Z,47406.4
2022-11-09T08:11:00.473Z,50263.2
2022-11-09T08:12:00.412Z,52920.3
2022-11-09T08:13:00.403Z,55577.5
2022-11-09T08:14:00.427Z,58234.6
2022-11-09T08:15:01.058Z,60583.0
2022-11-09T08:16:00.408Z,62931.4
2022-11-09T08:17:00.412Z,63799.3
2022-11-09T08:18:00.409Z,64667.1
2022-11-09T08:19:00.408Z,65535.0
2022-11-09T08:30:01.167Z,65535.0
2022-11-09T08:40:01.313Z,64498.5
2022-11-09T08:41:00.464Z,63461.9
2022-11-09T08:45:01.360Z,63461.9
2022-11-09T08:50:01.212Z,63147.1
2022-11-09T08:51:00.426Z,62832.2
2022-11-09T08:52:00.439Z,61629.3
2022-11-09T08:53:00.427Z,60426.3
2022-11-09T08:54:00.427Z,59223.4
2022-11-09T08:55:00.731Z,58895.4
2022-11-09T08:56:00.426Z,58567.4
2022-11-09T09:05:01.294Z,58622.2
2022-11-09T09:06:00.463Z,58677.0
2022-11-09T09:07:00.539Z,59375.6
2022-11-09T09:08:00.432Z,60074.2
2022-11-09T09:09:00.521Z,60772.8
2022-11-09T09:10:00.687Z,61495.3
2022-11-09T09:11:00.447Z,62217.9
2022-11-09T09:12:00.429Z,61691.7
2022-11-09T09:13:00.428Z,61165.6
2022-11-09T09:14:00.490Z,60639.5
2022-11-09T09:15:01.147Z,60639.5
2022-11-09T09:20:00.702Z,60899.5
2022-11-09T09:21:00.426Z,61159.6
2022-11-09T09:22:00.480Z,61663.9
2022-11-09T09:23:00.452Z,62168.3
2022-11-09T09:24:00.442Z,62672.6
2022-11-09T09:26:00.448Z,63956.6
2022-11-09T09:27:00.436Z,64482.7
2022-11-09T09:28:00.429Z,65008.9
2022-11-09T09:29:00.436Z,65535.0
2022-11-09T09:30:01.178Z,65535.0
2022-11-09T09:46:00.448Z,65211.3
2022-11-09T09:57:00.723Z,64268.8
2022-11-09T09:58:00.444Z,63326.3
2022-11-09T09:59:00.446Z,62383.9
2022-11-09T10:00:00.965Z,62545.7
2022-11-09T10:01:00.470Z,62707.6
2022-11-09T10:12:01.375Z,63650.1
2022-11-09T10:13:00.452Z,64592.5
2022-11-09T10:14:00.454Z,65535.0
2022-11-09T10:15:01.236Z,65535.0
2022-11-09T10:30:01.540Z,65535.0
2022-11-09T10:45:01.219Z,65535.0
2022-11-09T11:00:01.723Z,65535.0
2022-11-09T11:15:01.369Z,65535.0
2022-11-09T11:30:01.395Z,65535.0
2022-11-09T11:35:03.024Z,65434.5
2022-11-09T11:36:00.465Z,65333.9
2022-11-09T11:37:00.463Z,65233.4
2022-11-09T11:38:00.468Z,65046.9
2022-11-09T11:39:00.501Z,64860.5
2022-11-09T11:40:00.881Z,64256.6
2022-11-09T11:41:00.468Z,63652.7
2022-11-09T11:42:00.465Z,63048.9
2022-11-09T11:43:00.468Z,62783.2
2022-11-09T11:44:00.509Z,62517.5
2022-11-09T11:45:39.347Z,62050.8
2022-11-09T11:46:00.459Z,61584.1
2022-11-09T11:47:00.539Z,61117.3
2022-11-09T11:48:00.471Z,60540.6
2022-11-09T11:49:00.638Z,59963.9
2022-11-09T11:50:00.884Z,60064.4
2022-11-09T11:51:00.475Z,60164.9
2022-11-09T11:52:00.468Z,60265.5
2022-11-09T11:53:00.475Z,59672.0
2022-11-09T11:54:00.523Z,59078.5
2022-11-09T11:55:01.303Z,59682.4
2022-11-09T11:56:00.469Z,60286.3
2022-11-09T11:57:00.501Z,60890.1
2022-11-09T11:58:00.542Z,61155.8
2022-11-09T11:59:00.510Z,61421.5
2022-11-09T12:00:02.957Z,61888.2
2022-11-09T12:01:00.501Z,62354.9
2022-11-09T12:02:00.487Z,62821.7
2022-11-09T12:03:00.512Z,63398.4
2022-11-09T12:04:00.530Z,63975.1
2022-11-09T12:08:00.756Z,64755.1
2022-11-09T12:09:00.504Z,65535.0
2022-11-09T12:15:01.368Z,65535.0
2022-11-09T12:23:00.820Z,65455.0
2022-11-09T12:24:00.484Z,65375.0
2022-11-09T12:28:00.690Z,65062.8
2022-11-09T12:29:00.486Z,64750.6
2022-11-09T12:30:01.196Z,64750.6
2022-11-09T12:33:00.850Z,64503.7
2022-11-09T12:34:00.549Z,64256.9
2022-11-09T12:35:00.491Z,63877.0
2022-11-09T12:36:00.540Z,63497.1
2022-11-09T12:37:00.487Z,63117.3
2022-11-09T12:38:01.720Z,63197.3
2022-11-09T12:39:00.579Z,63277.3
2022-11-09T12:43:00.761Z,63589.5
2022-11-09T12:44:00.859Z,63901.7
2022-11-09T12:45:01.106Z,63638.7
2022-11-09T12:46:00.514Z,63375.8
2022-11-09T12:47:00.566Z,63112.9
2022-11-09T12:48:00.798Z,63359.7
2022-11-09T12:49:00.478Z,63606.6
2022-11-09T12:50:00.580Z,62501.1
2022-11-09T12:51:00.564Z,61395.7
2022-11-09T12:52:00.485Z,60290.2
2022-11-09T12:53:00.691Z,59127.1
2022-11-09T12:54:00.486Z,57964.1
2022-11-09T12:55:00.520Z,56913.6
2022-11-09T12:56:00.529Z,55863.1
2022-11-09T12:57:00.483Z,54812.7
2022-11-09T12:58:01.352Z,52708.3
2022-11-09T12:59:00.485Z,50604.0
2022-11-09T13:00:00.927Z,50866.9
2022-11-09T13:01:00.632Z,51129.9
2022-11-09T13:02:00.545Z,51392.8
2022-11-09T13:03:15.496Z,50457.6
2022-11-09T13:04:00.827Z,49522.4
2022-11-09T13:05:01.836Z,49117.2
2022-11-09T13:06:02.512Z,48712.0
2022-11-09T13:07:00.583Z,48306.8
2022-11-09T13:08:00.489Z,46892.5
2022-11-09T13:09:15.500Z,45478.3
2022-11-09T13:10:00.674Z,44620.4
2022-11-09T13:11:00.557Z,43762.5
2022-11-09T13:12:00.495Z,42904.7
2022-11-09T13:13:00.485Z,43386.1
2022-11-09T13:14:00.489Z,43867.5
2022-11-09T13:15:01.318Z,41978.1
2022-11-09T13:16:00.518Z,40088.8
2022-11-09T13:17:00.484Z,38199.5
2022-11-09T13:18:00.492Z,37149.5
2022-11-09T13:19:00.558Z,36099.6
2022-11-09T13:20:00.868Z,36462.5
2022-11-09T13:21:00.584Z,36825.5
2022-11-09T13:22:00.558Z,37188.4
2022-11-09T13:23:00.497Z,38002.7
2022-11-09T13:24:02.534Z,38816.9
2022-11-09T13:25:01.402Z,38772.7
2022-11-09T13:26:00.535Z,38728.5
2022-11-09T13:27:00.535Z,38684.3
2022-11-09T13:28:00.495Z,38750.5
2022-11-09T13:29:00.489Z,38816.6
2022-11-09T13:30:01.337Z,39436.9
2022-11-09T13:31:00.530Z,40057.1
2022-11-09T13:32:00.492Z,40677.4
2022-11-09T13:33:00.492Z,41637.0
2022-11-09T13:34:00.499Z,42596.6
2022-11-09T13:35:01.129Z,43008.7
2022-11-09T13:36:00.514Z,43420.9
2022-11-09T13:37:00.488Z,43833.0
2022-11-09T13:38:00.598Z,43500.5
2022-11-09T13:39:00.496Z,43168.1
2022-11-09T13:40:00.718Z,42539.7
2022-11-09T13:41:00.519Z,41911.3
2022-11-09T13:42:00.496Z,41282.9
2022-11-09T13:43:00.640Z,40720.7
2022-11-09T13:44:00.502Z,40158.5
2022-11-09T13:45:01.332Z,40264.7
2022-11-09T13:46:00.531Z,40370.9
2022-11-09T13:47:00.497Z,40477.1
2022-11-09T13:48:00.503Z,40141.1
2022-11-09T13:49:00.599Z,39805.1
2022-11-09T13:50:00.710Z,39124.9
2022-11-09T13:51:00.737Z,38444.8
2022-11-09T13:52:00.503Z,37764.7
2022-11-09T13:53:00.497Z,37849.2
2022-11-09T13:54:00.508Z,37933.7
2022-11-09T13:55:00.718Z,38320.5
2022-11-09T13:56:00.547Z,38707.3
2022-11-09T13:57:00.497Z,39094.1
2022-11-09T13:58:00.500Z,38706.3
2022-11-09T13:59:00.575Z,38318.5
2022-11-09T14:01:00.531Z,35481.2
2022-11-09T14:02:00.657Z,34062.5
2022-11-09T14:03:00.514Z,32675.1
2022-11-09T14:04:00.506Z,31287.6
2022-11-09T14:05:01.274Z,30532.0
2022-11-09T14:06:00.542Z,29776.4
2022-11-09T14:07:00.565Z,29020.8
2022-11-09T14:08:00.504Z,28617.7
2022-11-09T14:09:00.516Z,28214.7
2022-11-09T14:10:01.161Z,27947.2
2022-11-09T14:11:00.531Z,27679.7
2022-11-09T14:12:00.508Z,27412.3
2022-11-09T14:13:00.498Z,27491.4
2022-11-09T14:14:03.056Z,27570.5
2022-11-09T14:15:01.254Z,27325.9
2022-11-09T14:16:00.555Z,27081.2
2022-11-09T14:17:00.505Z,26836.5
2022-11-09T14:18:00.519Z,26607.2
2022-11-09T14:19:00.503Z,26377.9
2022-11-09T14:20:01.236Z,25859.3
2022-11-09T14:21:00.533Z,25340.7
2022-11-09T14:22:00.505Z,24822.1
2022-11-09T14:23:00.509Z,24060.2
2022-11-09T14:24:00.508Z,23298.3
2022-11-09T14:25:00.720Z,22463.6
2022-11-09T14:26:00.536Z,21628.9
2022-11-09T14:27:00.501Z,20794.1
2022-11-09T14:28:00.583Z,19712.7
2022-11-09T14:29:00.505Z,18631.3
2022-11-09T14:30:01.280Z,18176.5
2022-11-09T14:31:00.579Z,17721.7
2022-11-09T14:32:00.505Z,17266.9
2022-11-09T14:33:00.514Z,17171.4
2022-11-09T14:34:00.501Z,17075.9
2022-11-09T14:35:00.759Z,16921.1
2022-11-09T14:36:00.606Z,16766.4
2022-11-09T14:37:04.632Z,16611.7
2022-11-09T14:38:00.569Z,16582.1
2022-11-09T14:39:00.514Z,16552.6
2022-11-09T14:40:00.714Z,16855.3
2022-11-09T14:41:00.545Z,17157.9
2022-11-09T14:42:00.588Z,17460.6
2022-11-09T14:43:01.643Z,17739.4
2022-11-09T14:44:00.531Z,18018.2
2022-11-09T14:45:01.392Z,17795.9
2022-11-09T14:46:00.557Z,17573.5
2022-11-09T14:47:00.535Z,17351.2
2022-11-09T14:48:00.509Z,16824.1
2022-11-09T14:49:00.519Z,16296.9
2022-11-09T14:50:00.727Z,15845.9
2022-11-09T14:51:00.591Z,15394.9
2022-11-09T14:52:00.519Z,14943.9
2022-11-09T14:53:00.513Z,14369.7
2022-11-09T14:54:00.507Z,13795.5
2022-11-09T14:55:00.862Z,12967.8
2022-11-09T14:56:01.006Z,12140.1
2022-11-09T14:57:00.513Z,11312.3
2022-11-09T14:58:00.512Z,10772.1
2022-11-09T14:59:00.610Z,10231.8
2022-11-09T15:00:03.527Z,10013.9
2022-11-09T15:01:00.662Z,9795.9
2022-11-09T15:02:00.518Z,9578.0
2022-11-09T15:03:00.968Z,9405.5
2022-11-09T15:04:00.626Z,9232.9
2022-11-09T15:05:00.796Z,9108.9
2022-11-09T15:06:00.587Z,8984.9
2022-11-09T15:07:00.995Z,8860.9
2022-11-09T15:08:00.517Z,8732.1
2022-11-09T15:09:00.523Z,8603.2
2022-11-09T15:10:31.127Z,8520.5
2022-11-09T15:11:15.511Z,8437.9
2022-11-09T15:12:15.535Z,8355.2
2022-11-09T15:13:00.670Z,8159.7
2022-11-09T15:14:00.520Z,7964.1
2022-11-09T15:15:02.176Z,7638.5
2022-11-09T15:16:00.535Z,7312.9
